EST,Max TemperatureF,Mean TemperatureF,Min TemperatureF,Max Dew PointF,MeanDew PointF,Min DewpointF,Max Humidity, Mean Humidity, Min Humidity, Max Sea Level PressureIn, Mean Sea Level PressureIn, Min Sea Level PressureIn, Max VisibilityMiles, Mean VisibilityMiles, Min VisibilityMiles, Max Wind SpeedMPH, Mean Wind SpeedMPH, Max Gust SpeedMPH,PrecipitationIn, CloudCover, Events, WindDirDegrees
2012-12-1,45,38,30,38,33,27,96,86,75,30.48,30.41,30.36,8,3,0,12,4,14,0.00,2,Fog,344
2012-12-2,53,43,32,47,39,33,100,82,64,30.42,30.28,30.15,10,3,0,12,3,18,T,5,Fog-Rain,202
2012-12-3,65,57,48,54,51,45,96,82,67,30.28,30.23,30.18,10,10,6,9,5,14,0.00,5,,178
2012-12-4,70,61,51,53,51,49,96,74,51,30.25,30.15,30.00,10,10,7,13,5,16,0.00,4,,183
2012-12-5,63,54,45,49,33,22,72,57,42,30.37,30.20,30.01,10,10,10,25,12,31,0.00,2,,307
2012-12-6,40,33,26,23,21,19,75,62,48,30.42,30.33,30.25,10,10,10,10,3,13,0.00,0,,148
2012-12-7,40,38,35,38,35,25,100,80,59,30.22,30.10,29.98,10,5,2,10,5,15,0.05,8,Rain,321
2012-12-8,52,45,38,47,41,37,100,89,77,30.07,29.95,29.90,7,2,0,8,2,13,0.00,7,Fog,286
2012-12-9,50,47,44,47,44,42,100,93,86,30.22,30.11,29.96,10,3,0,10,5,14,0.29,8,Fog-Rain,12
2012-12-10,52,47,42,52,47,38,100,100,100,29.96,29.70,29.56,10,2,0,8,1,10,0.05,8,Fog-Rain,308
2012-12-11,46,42,37,38,31,26,82,70,57,30.26,30.03,29.78,10,10,10,22,10,30,0.00,5,,295
2012-12-12,38,35,31,28,26,25,85,72,59,30.48,30.41,30.27,10,10,9,9,2,12,0.00,0,,321
2012-12-13,44,37,30,24,23,18,75,57,39,30.42,30.36,30.32,10,10,10,7,1,,0.00,0,,35
2012-12-14,51,37,23,28,25,21,92,64,36,30.36,30.31,30.25,10,9,6,9,4,12,0.00,0,,160
2012-12-15,50,40,30,35,29,24,79,61,42,30.33,30.23,30.13,10,9,5,10,2,13,0.00,2,,151
2012-12-16,47,44,41,41,39,33,83,71,58,30.11,29.95,29.84,10,8,5,16,7,22,T,7,,156
2012-12-17,50,45,40,49,44,39,100,93,86,29.88,29.74,29.54,9,4,0,7,1,8,T,7,Fog-Rain,352
2012-12-18,52,48,44,46,40,28,100,78,56,29.84,29.61,29.52,10,5,0,28,11,36,0.00,5,Fog,253
2012-12-19,50,42,34,36,33,29,82,72,61,30.21,30.00,29.83,10,10,8,18,6,24,T,6,,340
2012-12-20,43,39,34,44,34,30,85,74,62,30.23,29.97,29.44,10,8,5,15,6,21,0.05,4,Rain,123
2012-12-21,48,42,35,43,32,22,100,80,59,29.57,29.40,29.31,10,7,1,28,15,35,0.37,8,Rain,281
2012-12-22,39,37,35,22,21,19,56,52,48,30.05,29.86,29.58,10,10,10,37,25,49,0.00,5,,291
2012-12-23,47,36,24,24,19,16,74,53,31,30.08,30.01,29.91,10,10,10,15,7,21,0.00,0,,217
2012-12-24,37,33,28,31,28,23,100,82,64,30.09,29.97,29.89,10,4,0,8,3,10,0.10,6,Fog-Snow,43
2012-12-25,39,35,31,36,32,28,100,90,79,30.29,30.12,29.89,10,3,0,6,1,7,0.00,7,Fog,44
2012-12-26,34,31,27,34,27,21,100,86,72,30.29,29.85,29.47,10,4,0,18,9,23,0.40,8,Fog-Rain-Snow,28
2012-12-27,36,35,33,34,27,24,100,82,64,30.04,29.76,29.48,10,9,2,33,19,44,0.01,8,Rain,312
2012-12-28,36,33,29,26,24,23,78,69,59,30.18,30.11,30.05,10,9,7,20,8,29,0.00,2,,329
2012-12-29,34,31,28,34,30,25,100,89,78,30.05,29.74,29.57,10,4,0,9,2,14,0.22,8,Fog-Snow,294
2012-12-30,35,33,31,25,21,17,69,63,56,30.35,30.19,29.91,10,10,10,35,21,45,T,6,,297
2012-12-31,35,29,22,28,21,16,77,67,56,30.33,30.18,30.01,10,10,10,10,5,13,0.00,3,,197